Reliance, Texas
Current Conditions -  °F | °C
As of 1:53 AM on Sunday 26 Oct 2014 (Local Time) from KCLL Reporting Station
Clear Clear  
Wind Chill: 65°   Ceiling: Unl
Heat Index: 65°   Visibility: 10mi
Dew Point: 59°   Wind: 5mph
Humidity: 81%   Direction: 180°S
Pressure: 30.07"   Gusts: NA
Location:  30.6361°N, 96.3666°W
Report Text: KCLL 260653Z AUTO 18004KT 10SM CLR 18/15 A3007 RMK AO2 SLP178 T01830150
Loading
Personal Weather Stations






























Interactive Weather Map
Tropical Storm Tracking
New forecast layout! Learn more

10-Day Weather Forecast

Advertisements
Track Severe Weather on mobile